Time,TemperatureF,DewpointF,PressureIn,WindDirection,WindDirectionDegrees,WindSpeedMPH,WindSpeedGustMPH,Humidity,HourlyPrecipIn,Conditions,Clouds,dailyrainin,SoftwareType,DateUTC
2013-03-19 00:03:00,53.5,46.5,30.03,NNW,328,0.0,0.0,77,0.00,CLR,,0.00,WeatherDisplay:10.37,2013-03-19 07:03:00,
2013-03-19 00:08:00,53.4,46.4,30.02,NNW,328,0.0,0.0,77,0.00,CLR,,0.00,WeatherDisplay:10.37,2013-03-19 07:08:00,
2013-03-19 00:13:00,53.2,46.2,30.01,NNW,328,0.0,0.0,77,0.00,CLR,,0.00,WeatherDisplay:10.37,2013-03-19 07:13:00,
2013-03-19 00:18:00,53.1,46.4,30.02,NNW,328,0.0,0.0,78,0.00,CLR,,0.00,WeatherDisplay:10.37,2013-03-19 07:18:00,
2013-03-19 00:23:00,52.9,46.2,30.01,NNW,328,0.0,0.0,78,0.00,CLR,,0.00,WeatherDisplay:10.37,2013-03-19 07:23:00,
2013-03-19 00:28:00,52.8,46.5,30.01,NNW,328,0.0,0.0,79,0.00,CLR,,0.00,WeatherDisplay:10.37,2013-03-19 07:28:00,
2013-03-19 00:33:00,52.7,46.7,30.02,NNW,328,0.0,0.0,80,0.00,CLR,,0.00,WeatherDisplay:10.37,2013-03-19 07:33:00,
2013-03-19 00:38:00,52.8,47.1,30.02,NNW,328,0.0,0.0,81,0.00,CLR,,0.00,WeatherDisplay:10.37,2013-03-19 07:38:00,
2013-03-19 00:43:00,52.9,46.9,30.02,NNW,328,0.0,0.0,80,0.00,CLR,,0.00,WeatherDisplay:10.37,2013-03-19 07:43:00,
2013-03-19 00:48:00,53.0,47.0,30.02,NNW,328,0.0,0.0,80,0.00,CLR,,0.00,WeatherDisplay:10.37,2013-03-19 07:48:00,
2013-03-19 00:53:00,53.0,46.7,30.03,NNW,328,0.0,0.0,79,0.00,CLR,,0.00,WeatherDisplay:10.37,2013-03-19 07:53:00,
2013-03-19 00:58:00,52.8,46.8,30.03,NNW,328,0.0,0.0,80,0.00,CLR,,0.00,WeatherDisplay:10.37,2013-03-19 07:58:00,
2013-03-19 01:03:00,52.8,46.8,30.04,NNW,328,0.0,0.0,80,0.00,CLR,,0.00,WeatherDisplay:10.37,2013-03-19 08:03:00,
2013-03-19 01:08:00,52.8,46.8,30.04,NNW,328,0.0,0.0,80,0.00,CLR,,0.00,WeatherDisplay:10.37,2013-03-19 08:08:00,
2013-03-19 01:13:00,52.6,46.6,30.04,NNW,328,0.0,0.0,80,0.00,CLR,,0.00,WeatherDisplay:10.37,2013-03-19 08:13:00,
2013-03-19 01:18:00,52.5,46.5,30.04,NNW,327,0.0,0.0,80,0.00,CLR,,0.00,WeatherDisplay:10.37,2013-03-19 08:18:00,
2013-03-19 01:23:00,52.3,46.6,30.04,NNW,327,0.0,0.0,81,0.00,CLR,,0.00,WeatherDisplay:10.37,2013-03-19 08:23:00,
2013-03-19 01:28:00,52.2,46.9,30.04,NNW,328,0.0,0.0,82,0.00,CLR,,0.00,WeatherDisplay:10.37,2013-03-19 08:28:00,
2013-03-19 01:33:00,52.3,47.0,30.05,NNW,328,0.0,0.0,82,0.00,CLR,,0.00,WeatherDisplay:10.37,2013-03-19 08:33:00,
2013-03-19 01:38:00,52.3,47.0,30.05,NNW,328,0.0,0.0,82,0.00,CLR,,0.00,WeatherDisplay:10.37,2013-03-19 08:38:00,
2013-03-19 01:43:00,52.3,47.0,30.05,NNW,328,0.0,0.0,82,0.00,CLR,,0.00,WeatherDisplay:10.37,2013-03-19 08:43:00,
2013-03-19 01:48:00,52.4,47.1,30.05,NNW,328,0.0,0.0,82,0.00,CLR,,0.00,WeatherDisplay:10.37,2013-03-19 08:48:00,
2013-03-19 01:53:00,52.6,47.3,30.05,NNW,328,0.0,0.0,82,0.00,CLR,,0.00,WeatherDisplay:10.37,2013-03-19 08:53:00,
2013-03-19 01:58:00,53.1,47.4,30.05,NNW,327,0.0,0.0,81,0.00,CLR,,0.00,WeatherDisplay:10.37,2013-03-19 08:58:00,
2013-03-19 02:03:00,53.3,47.3,30.04,NNW,328,0.0,0.0,80,0.00,CLR,,0.00,WeatherDisplay:10.37,2013-03-19 09:03:00,
2013-03-19 02:08:00,53.3,47.3,30.04,NNW,328,0.0,0.0,80,0.00,CLR,,0.00,WeatherDisplay:10.37,2013-03-19 09:08:00,
2013-03-19 02:13:00,53.1,47.1,30.04,NNW,328,0.0,0.0,80,0.00,CLR,,0.00,WeatherDisplay:10.37,2013-03-19 09:13:00,
2013-03-19 02:18:00,52.9,46.9,30.04,NNW,328,0.0,0.0,80,0.00,CLR,,0.00,WeatherDisplay:10.37,2013-03-19 09:18:00,
2013-03-19 02:23:00,52.8,47.1,30.05,NNW,328,0.0,0.0,81,0.00,CLR,,0.00,WeatherDisplay:10.37,2013-03-19 09:23:00,
2013-03-19 02:28:00,52.7,46.7,30.05,NNW,328,0.0,0.0,80,0.00,CLR,,0.00,WeatherDisplay:10.37,2013-03-19 09:28:00,
2013-03-19 02:33:00,52.7,47.0,30.05,NNW,328,0.0,0.0,81,0.00,CLR,,0.00,WeatherDisplay:10.37,2013-03-19 09:33:00,
2013-03-19 02:38:00,52.7,47.0,30.06,NNW,328,1.2,0.0,81,0.00,CLR,,0.00,WeatherDisplay:10.37,2013-03-19 09:38:00,
2013-03-19 02:43:00,52.6,46.9,30.05,NNW,328,0.0,0.0,81,0.00,CLR,,0.00,WeatherDisplay:10.37,2013-03-19 09:43:00,
2013-03-19 02:48:00,52.5,46.8,30.05,NNW,328,0.0,0.0,81,0.00,CLR,,0.00,WeatherDisplay:10.37,2013-03-19 09:48:00,
2013-03-19 02:53:00,52.4,47.1,30.05,NNW,328,0.0,0.0,82,0.00,CLR,,0.00,WeatherDisplay:10.37,2013-03-19 09:53:00,
2013-03-19 02:58:00,52.2,46.9,30.05,NNW,328,0.0,0.0,82,0.00,CLR,,0.00,WeatherDisplay:10.37,2013-03-19 09:58:00,
2013-03-19 03:03:00,52.2,47.2,30.06,WNW,282,0.0,0.0,83,0.00,CLR,,0.00,WeatherDisplay:10.37,2013-03-19 10:03:00,
2013-03-19 03:08:00,52.1,47.1,30.05,WNW,283,0.0,0.0,83,0.00,CLR,,0.00,WeatherDisplay:10.37,2013-03-19 10:08:00,
2013-03-19 03:13:00,52.0,47.0,30.05,WNW,283,0.0,0.0,83,0.00,CLR,,0.00,WeatherDisplay:10.37,2013-03-19 10:13:00,
2013-03-19 03:18:00,51.8,47.1,30.05,WNW,283,0.0,0.0,84,0.00,CLR,,0.00,WeatherDisplay:10.37,2013-03-19 10:18:00,
2013-03-19 03:23:00,51.5,46.8,30.04,WNW,283,0.0,0.0,84,0.00,CLR,,0.00,WeatherDisplay:10.37,2013-03-19 10:23:00,
2013-03-19 03:28:00,51.2,46.5,30.04,WNW,283,0.0,0.0,84,0.00,CLR,,0.00,WeatherDisplay:10.37,2013-03-19 10:28:00,
2013-03-19 03:33:00,50.9,46.2,30.04,WNW,283,0.0,0.0,84,0.00,CLR,,0.00,WeatherDisplay:10.37,2013-03-19 10:33:00,
2013-03-19 03:38:00,50.5,45.8,30.04,WNW,282,0.0,0.0,84,0.00,CLR,,0.00,WeatherDisplay:10.37,2013-03-19 10:38:00,
2013-03-19 03:43:00,50.2,45.6,30.04,WNW,283,0.0,0.0,84,0.00,CLR,,0.00,WeatherDisplay:10.37,2013-03-19 10:43:00,
2013-03-19 03:48:00,49.9,45.6,30.04,WNW,283,0.0,0.0,85,0.00,CLR,,0.00,WeatherDisplay:10.37,2013-03-19 10:48:00,
2013-03-19 03:53:00,49.6,45.3,30.04,WNW,283,0.0,0.0,85,0.00,CLR,,0.00,WeatherDisplay:10.37,2013-03-19 10:53:00,
2013-03-19 03:58:00,49.4,45.4,30.04,WNW,283,0.0,0.0,86,0.00,CLR,,0.00,WeatherDisplay:10.37,2013-03-19 10:58:00,
2013-03-19 04:03:00,49.2,45.2,30.04,WNW,283,0.0,0.0,86,0.00,CLR,,0.00,WeatherDisplay:10.37,2013-03-19 11:03:00,
2013-03-19 04:08:00,49.1,45.4,30.04,WNW,282,0.0,0.0,87,0.00,CLR,,0.00,WeatherDisplay:10.37,2013-03-19 11:08:00,
2013-03-19 04:13:00,48.9,45.2,30.04,WNW,283,0.0,0.0,87,0.00,CLR,,0.00,WeatherDisplay:10.37,2013-03-19 11:13:00,
2013-03-19 04:18:00,48.8,45.1,30.04,WNW,283,0.0,0.0,87,0.00,CLR,,0.00,WeatherDisplay:10.37,2013-03-19 11:18:00,
2013-03-19 04:23:00,48.6,45.2,30.04,WNW,283,0.0,0.0,88,0.00,CLR,,0.00,WeatherDisplay:10.37,2013-03-19 11:23:00,
2013-03-19 04:28:00,48.4,45.0,30.04,WNW,282,0.0,0.0,88,0.00,CLR,,0.00,WeatherDisplay:10.37,2013-03-19 11:28:00,
2013-03-19 04:33:00,48.5,45.4,30.04,WNW,283,0.0,0.0,89,0.00,CLR,,0.00,WeatherDisplay:10.37,2013-03-19 11:33:00,
2013-03-19 04:38:00,48.7,45.6,30.04,WNW,283,0.0,0.0,89,0.00,CLR,,0.00,WeatherDisplay:10.37,2013-03-19 11:38:00,
2013-03-19 04:43:00,49.0,45.9,30.05,WNW,283,0.0,0.0,89,0.00,CLR,,0.00,WeatherDisplay:10.37,2013-03-19 11:43:00,
2013-03-19 04:48:00,49.0,45.3,30.05,WNW,283,0.0,0.0,87,0.00,CLR,,0.00,WeatherDisplay:10.37,2013-03-19 11:48:00,
2013-03-19 04:53:00,48.9,45.2,30.05,WNW,283,0.0,0.0,87,0.00,CLR,,0.00,WeatherDisplay:10.37,2013-03-19 11:53:00,
2013-03-19 04:58:00,48.9,45.5,30.05,WNW,283,0.0,0.0,88,0.00,CLR,,0.00,WeatherDisplay:10.37,2013-03-19 11:58:00,
2013-03-19 05:03:00,48.8,45.4,30.05,WNW,282,0.0,0.0,88,0.00,CLR,,0.00,WeatherDisplay:10.37,2013-03-19 12:03:00,
2013-03-19 05:08:00,48.7,45.3,30.05,WNW,283,0.0,0.0,88,0.00,CLR,,0.00,WeatherDisplay:10.37,2013-03-19 12:08:00,
2013-03-19 05:13:00,48.5,45.1,30.05,WNW,283,0.0,0.0,88,0.00,CLR,,0.00,WeatherDisplay:10.37,2013-03-19 12:13:00,
2013-03-19 05:18:00,48.2,44.8,30.05,WNW,283,0.0,0.0,88,0.00,CLR,,0.00,WeatherDisplay:10.37,2013-03-19 12:18:00,
2013-03-19 05:23:00,47.9,44.5,30.05,WNW,283,0.0,0.0,88,0.00,CLR,,0.00,WeatherDisplay:10.37,2013-03-19 12:23:00,
2013-03-19 05:28:00,47.7,44.3,30.05,WNW,283,0.0,0.0,88,0.00,CLR,,0.00,WeatherDisplay:10.37,2013-03-19 12:28:00,
2013-03-19 05:33:00,47.6,44.5,30.05,WNW,283,0.0,0.0,89,0.00,CLR,,0.00,WeatherDisplay:10.37,2013-03-19 12:33:00,
2013-03-19 05:38:00,47.6,44.5,30.05,WNW,283,0.0,0.0,89,0.00,CLR,,0.00,WeatherDisplay:10.37,2013-03-19 12:38:00,
2013-03-19 05:43:00,47.7,44.9,30.05,WNW,283,0.0,0.0,90,0.00,CLR,,0.00,WeatherDisplay:10.37,2013-03-19 12:43:00,
2013-03-19 05:48:00,47.9,45.1,30.05,WNW,283,0.0,0.0,90,0.00,CLR,,0.00,WeatherDisplay:10.37,2013-03-19 12:48:00,
2013-03-19 05:53:00,47.8,45.0,30.06,WNW,283,0.0,0.0,90,0.00,CLR,,0.00,WeatherDisplay:10.37,2013-03-19 12:53:00,
2013-03-19 05:58:00,47.6,44.5,30.06,WNW,283,0.0,0.0,89,0.00,CLR,,0.00,WeatherDisplay:10.37,2013-03-19 12:58:00,
2013-03-19 06:03:00,47.6,44.8,30.06,WNW,283,0.0,0.0,90,0.00,CLR,,0.00,WeatherDisplay:10.37,2013-03-19 13:03:00,
2013-03-19 06:08:00,47.4,44.3,30.06,WNW,283,0.0,0.0,89,0.00,CLR,,0.00,WeatherDisplay:10.37,2013-03-19 13:08:00,
2013-03-19 06:13:00,47.2,44.1,30.06,WNW,283,0.0,0.0,89,0.00,CLR,,0.00,WeatherDisplay:10.37,2013-03-19 13:13:00,
2013-03-19 06:18:00,47.1,44.0,30.06,WNW,282,0.0,0.0,89,0.00,CLR,,0.00,WeatherDisplay:10.37,2013-03-19 13:18:00,
2013-03-19 06:23:00,46.9,43.8,30.06,WNW,283,0.0,0.0,89,0.00,CLR,,0.00,WeatherDisplay:10.37,2013-03-19 13:23:00,
2013-03-19 06:28:00,46.7,43.9,30.06,WNW,283,0.0,0.0,90,0.00,CLR,,0.00,WeatherDisplay:10.37,2013-03-19 13:28:00,
2013-03-19 06:33:00,46.5,43.7,30.06,WNW,283,0.0,0.0,90,0.00,CLR,,0.00,WeatherDisplay:10.37,2013-03-19 13:33:00,
2013-03-19 06:38:00,46.4,43.6,30.06,WNW,283,0.0,0.0,90,0.00,CLR,,0.00,WeatherDisplay:10.37,2013-03-19 13:38:00,
2013-03-19 06:43:00,46.3,43.5,30.06,WNW,283,0.0,0.0,90,0.00,CLR,,0.00,WeatherDisplay:10.37,2013-03-19 13:43:00,
2013-03-19 06:48:00,46.3,43.8,30.06,WNW,283,0.0,0.0,91,0.00,CLR,,0.00,WeatherDisplay:10.37,2013-03-19 13:48:00,
2013-03-19 06:53:00,46.7,44.5,30.06,WNW,283,0.0,0.0,92,0.00,CLR,,0.00,WeatherDisplay:10.37,2013-03-19 13:53:00,
2013-03-19 06:58:00,47.4,45.2,30.07,West,273,0.0,0.0,92,0.00,CLR,,0.00,WeatherDisplay:10.37,2013-03-19 13:58:00,
2013-03-19 07:03:00,48.0,45.2,30.07,West,273,0.0,0.0,90,0.00,CLR,,0.00,WeatherDisplay:10.37,2013-03-19 14:03:00,
2013-03-19 07:08:00,48.6,45.5,30.06,West,273,0.0,0.0,89,0.00,CLR,,0.00,WeatherDisplay:10.37,2013-03-19 14:08:00,
2013-03-19 07:13:00,49.0,45.3,30.07,West,273,0.0,0.0,87,0.00,CLR,,0.00,WeatherDisplay:10.37,2013-03-19 14:13:00,
2013-03-19 07:18:00,49.3,45.3,30.07,West,273,0.0,0.0,86,0.00,CLR,,0.00,WeatherDisplay:10.37,2013-03-19 14:18:00,
2013-03-19 07:23:00,49.4,45.4,30.07,West,273,0.0,0.0,86,0.00,CLR,,0.00,WeatherDisplay:10.37,2013-03-19 14:23:00,
2013-03-19 07:28:00,49.5,45.5,30.07,West,273,0.0,0.0,86,0.00,CLR,,0.00,WeatherDisplay:10.37,2013-03-19 14:28:00,
2013-03-19 07:33:00,49.6,45.6,30.07,West,273,0.0,0.0,86,0.00,CLR,,0.00,WeatherDisplay:10.37,2013-03-19 14:33:00,
2013-03-19 07:38:00,49.6,45.6,30.08,West,273,0.0,0.0,86,0.00,CLR,,0.00,WeatherDisplay:10.37,2013-03-19 14:38:00,
2013-03-19 07:43:00,49.7,45.7,30.08,West,273,0.0,0.0,86,0.00,CLR,,0.00,WeatherDisplay:10.37,2013-03-19 14:43:00,
2013-03-19 07:48:00,49.9,45.9,30.08,West,273,0.0,0.0,86,0.00,CLR,,0.00,WeatherDisplay:10.37,2013-03-19 14:48:00,
2013-03-19 07:53:00,50.3,46.3,30.08,West,273,0.0,0.0,86,0.00,CLR,,0.00,WeatherDisplay:10.37,2013-03-19 14:53:00,
2013-03-19 07:58:00,51.0,46.3,30.08,West,273,0.0,0.0,84,0.00,CLR,,0.00,WeatherDisplay:10.37,2013-03-19 14:58:00,
2013-03-19 08:03:00,51.7,46.4,30.09,West,273,0.0,0.0,82,0.00,CLR,,0.00,WeatherDisplay:10.37,2013-03-19 15:03:00,
2013-03-19 08:08:00,52.4,47.1,30.09,West,273,0.0,0.0,82,0.00,CLR,,0.00,WeatherDisplay:10.37,2013-03-19 15:08:00,
2013-03-19 08:13:00,53.0,47.3,30.09,South,179,0.0,0.0,81,0.00,CLR,,0.00,WeatherDisplay:10.37,2013-03-19 15:13:00,
2013-03-19 08:18:00,53.9,47.2,30.09,South,175,0.0,0.0,78,0.00,CLR,,0.00,WeatherDisplay:10.37,2013-03-19 15:18:00,
2013-03-19 08:23:00,54.6,47.5,30.09,South,174,0.0,0.0,77,0.00,CLR,,0.00,WeatherDisplay:10.37,2013-03-19 15:23:00,
2013-03-19 08:28:00,55.1,47.3,30.09,South,175,0.0,0.0,75,0.00,CLR,,0.00,WeatherDisplay:10.37,2013-03-19 15:28:00,
2013-03-19 08:33:00,55.5,47.3,30.09,South,174,0.0,0.0,74,0.00,CLR,,0.00,WeatherDisplay:10.37,2013-03-19 15:33:00,
2013-03-19 08:38:00,55.8,47.3,30.09,South,175,0.0,0.0,73,0.00,CLR,,0.00,WeatherDisplay:10.37,2013-03-19 15:38:00,
2013-03-19 08:43:00,56.3,47.4,30.09,South,175,0.0,0.0,72,0.00,CLR,,0.00,WeatherDisplay:10.37,2013-03-19 15:43:00,
2013-03-19 08:48:00,56.8,47.9,30.09,South,174,0.0,0.0,72,0.00,CLR,,0.00,WeatherDisplay:10.37,2013-03-19 15:48:00,
2013-03-19 08:53:00,57.2,47.9,30.10,South,174,0.0,0.0,71,0.00,CLR,,0.00,WeatherDisplay:10.37,2013-03-19 15:53:00,
2013-03-19 08:58:00,57.8,46.1,30.09,SW,215,1.2,1.2,65,0.00,CLR,,0.00,WeatherDisplay:10.37,2013-03-19 15:58:00,
2013-03-19 09:03:00,58.7,46.1,30.09,SW,224,1.2,0.0,63,0.00,CLR,,0.00,WeatherDisplay:10.37,2013-03-19 16:03:00,
2013-03-19 09:08:00,59.3,46.7,30.10,SE,128,0.0,0.2,63,0.00,CLR,,0.00,WeatherDisplay:10.37,2013-03-19 16:08:00,
2013-03-19 09:13:00,59.7,46.2,30.10,SW,218,0.0,0.0,61,0.00,CLR,,0.00,WeatherDisplay:10.37,2013-03-19 16:13:00,
2013-03-19 09:18:00,59.9,45.5,30.10,SSW,212,2.3,2.3,59,0.00,CLR,,0.00,WeatherDisplay:10.37,2013-03-19 16:18:00,
2013-03-19 09:23:00,60.1,46.2,30.10,SW,215,0.0,0.0,60,0.00,CLR,,0.00,WeatherDisplay:10.37,2013-03-19 16:23:00,
2013-03-19 09:28:00,60.3,46.8,30.10,WSW,243,1.2,0.0,61,0.00,CLR,,0.00,WeatherDisplay:10.37,2013-03-19 16:28:00,
2013-03-19 09:33:00,60.5,46.5,30.10,SW,218,1.2,0.0,60,0.00,CLR,,0.00,WeatherDisplay:10.37,2013-03-19 16:33:00,
2013-03-19 09:38:00,60.5,46.1,30.10,SW,218,1.2,0.0,59,0.00,CLR,,0.00,WeatherDisplay:10.37,2013-03-19 16:38:00,
2013-03-19 09:43:00,60.7,46.3,30.10,WSW,246,1.2,1.2,59,0.00,CLR,,0.00,WeatherDisplay:10.37,2013-03-19 16:43:00,
2013-03-19 09:49:00,60.8,46.4,30.10,SW,222,1.2,1.2,59,0.00,CLR,,0.00,WeatherDisplay:10.37,2013-03-19 16:49:00,
2013-03-19 09:54:00,60.9,46.5,30.10,SSW,201,1.2,0.0,59,0.00,CLR,,0.00,WeatherDisplay:10.37,2013-03-19 16:54:00,
2013-03-19 09:59:00,60.9,46.9,30.10,South,191,1.2,1.2,60,0.00,CLR,,0.00,WeatherDisplay:10.37,2013-03-19 16:59:00,
2013-03-19 10:04:00,61.2,47.6,30.10,SW,215,1.2,1.2,61,0.00,CLR,,0.00,WeatherDisplay:10.37,2013-03-19 17:04:00,
2013-03-19 10:09:00,61.5,47.9,30.10,WSW,252,1.0,0.0,61,0.00,CLR,,0.00,WeatherDisplay:10.37,2013-03-19 17:09:00,
2013-03-19 10:14:00,61.9,47.9,30.10,SE,145,2.3,2.3,60,0.00,CLR,,0.00,WeatherDisplay:10.37,2013-03-19 17:14:00,
2013-03-19 10:19:00,62.4,47.9,30.10,SSW,198,1.2,1.2,59,0.00,CLR,,0.00,WeatherDisplay:10.37,2013-03-19 17:19:00,
2013-03-19 10:24:00,62.7,47.7,30.10,SSW,210,1.2,1.2,58,0.00,CLR,,0.00,WeatherDisplay:10.37,2013-03-19 17:24:00,
2013-03-19 10:29:00,62.9,47.9,30.10,SSW,212,1.2,0.0,58,0.00,CLR,,0.00,WeatherDisplay:10.37,2013-03-19 17:29:00,
2013-03-19 10:34:00,63.2,49.1,30.10,South,189,0.0,0.0,60,0.00,CLR,,0.00,WeatherDisplay:10.37,2013-03-19 17:34:00,
2013-03-19 10:39:00,63.5,48.5,30.10,SSW,210,1.2,1.2,58,0.00,CLR,,0.00,WeatherDisplay:10.37,2013-03-19 17:39:00,
2013-03-19 10:44:00,63.9,48.8,30.10,SE,131,1.2,1.2,58,0.00,CLR,,0.00,WeatherDisplay:10.37,2013-03-19 17:44:00,
2013-03-19 10:49:00,64.5,48.9,30.09,SSW,201,1.2,1.2,57,0.00,CLR,,0.00,WeatherDisplay:10.37,2013-03-19 17:49:00,
2013-03-19 10:54:00,64.9,48.8,30.09,SSW,200,1.2,1.2,56,0.00,CLR,,0.00,WeatherDisplay:10.37,2013-03-19 17:54:00,
2013-03-19 10:59:00,65.1,48.5,30.10,ESE,115,1.2,1.2,55,0.00,CLR,,0.00,WeatherDisplay:10.37,2013-03-19 17:59:00,
2013-03-19 11:04:00,65.6,48.5,30.09,SW,218,1.2,1.2,54,0.00,CLR,,0.00,WeatherDisplay:10.37,2013-03-19 18:04:00,
2013-03-19 11:09:00,65.9,48.3,30.09,SW,219,1.2,1.2,53,0.00,CLR,,0.00,WeatherDisplay:10.37,2013-03-19 18:09:00,
2013-03-19 11:14:00,66.4,49.2,30.09,SSE,150,1.2,0.0,54,0.00,CLR,,0.00,WeatherDisplay:10.37,2013-03-19 18:14:00,
2013-03-19 11:19:00,66.9,48.2,30.09,SW,228,2.3,2.3,51,0.00,CLR,,0.00,WeatherDisplay:10.37,2013-03-19 18:19:00,
2013-03-19 11:24:00,67.0,47.7,30.09,SSW,210,0.0,0.1,50,0.00,CLR,,0.00,WeatherDisplay:10.37,2013-03-19 18:24:00,
2013-03-19 11:29:00,67.3,46.9,30.09,SSW,207,1.2,1.2,48,0.00,CLR,,0.00,WeatherDisplay:10.37,2013-03-19 18:29:00,
2013-03-19 11:34:00,67.6,47.8,30.09,South,173,0.0,0.0,49,0.00,CLR,,0.00,WeatherDisplay:10.37,2013-03-19 18:34:00,
2013-03-19 11:40:00,68.1,48.8,30.09,SW,219,1.2,1.2,50,0.00,CLR,,0.00,WeatherDisplay:10.37,2013-03-19 18:40:00,
2013-03-19 11:45:00,68.8,49.4,30.09,SSW,204,0.0,0.0,50,0.00,CLR,,0.00,WeatherDisplay:10.37,2013-03-19 18:45:00,
2013-03-19 11:50:00,69.3,49.3,30.09,SSE,158,1.2,1.2,49,0.00,CLR,,0.00,WeatherDisplay:10.37,2013-03-19 18:50:00,
2013-03-19 11:55:00,69.8,49.2,30.09,WSW,248,2.3,2.3,48,0.00,CLR,,0.00,WeatherDisplay:10.37,2013-03-19 18:55:00,
2013-03-19 12:00:00,70.3,48.5,30.08,West,264,2.3,2.3,46,0.00,CLR,,0.00,WeatherDisplay:10.37,2013-03-19 19:00:00,
2013-03-19 12:05:00,70.6,49.4,30.08,SW,225,1.2,1.2,47,0.00,CLR,,0.00,WeatherDisplay:10.37,2013-03-19 19:05:00,
2013-03-19 12:10:00,71.1,48.7,30.08,South,169,1.0,1.0,45,0.00,CLR,,0.00,WeatherDisplay:10.37,2013-03-19 19:10:00,
2013-03-19 12:15:00,71.3,48.9,30.08,West,263,1.2,0.0,45,0.00,CLR,,0.00,WeatherDisplay:10.37,2013-03-19 19:15:00,
2013-03-19 12:20:00,71.8,49.3,30.08,SSW,209,1.2,1.2,45,0.00,CLR,,0.00,WeatherDisplay:10.37,2013-03-19 19:20:00,
2013-03-19 12:25:00,72.3,48.5,30.08,WSW,246,2.3,2.3,43,0.00,CLR,,0.00,WeatherDisplay:10.37,2013-03-19 19:25:00,
2013-03-19 12:30:00,72.7,48.9,30.08,SW,222,1.2,1.2,43,0.00,CLR,,0.00,WeatherDisplay:10.37,2013-03-19 19:30:00,
2013-03-19 12:35:00,72.9,49.7,30.08,WSW,246,4.6,4.6,44,0.00,CLR,,0.00,WeatherDisplay:10.37,2013-03-19 19:35:00,
2013-03-19 12:40:00,72.8,49.6,30.08,NNW,348,1.2,1.2,44,0.00,CLR,,0.00,WeatherDisplay:10.37,2013-03-19 19:40:00,
2013-03-19 12:45:00,73.4,48.3,30.08,SW,232,1.2,1.2,41,0.00,CLR,,0.00,WeatherDisplay:10.37,2013-03-19 19:45:00,
2013-03-19 12:50:00,73.4,49.5,30.08,West,266,2.3,2.3,43,0.00,CLR,,0.00,WeatherDisplay:10.37,2013-03-19 19:50:00,
2013-03-19 12:55:00,73.5,49.0,30.07,SSW,204,0.0,0.0,42,0.00,CLR,,0.00,WeatherDisplay:10.37,2013-03-19 19:55:00,
2013-03-19 13:00:00,74.1,47.6,30.07,West,277,3.5,3.5,39,0.00,CLR,,0.00,WeatherDisplay:10.37,2013-03-19 20:00:00,
2013-03-19 13:05:00,74.4,48.5,30.07,SW,215,1.2,1.2,40,0.00,CLR,,0.00,WeatherDisplay:10.37,2013-03-19 20:05:00,
2013-03-19 13:10:00,74.4,47.8,30.07,NNW,341,1.2,1.2,39,0.00,CLR,,0.00,WeatherDisplay:10.37,2013-03-19 20:10:00,
2013-03-19 13:15:00,74.9,47.6,30.07,North,1,2.0,2.0,38,0.00,CLR,,0.00,WeatherDisplay:10.37,2013-03-19 20:15:00,
2013-03-19 13:20:00,75.3,47.2,30.07,North,11,2.3,2.3,37,0.00,CLR,,0.00,WeatherDisplay:10.37,2013-03-19 20:20:00,
2013-03-19 13:25:00,75.4,46.6,30.06,West,269,2.3,2.3,36,0.00,CLR,,0.00,WeatherDisplay:10.37,2013-03-19 20:25:00,
2013-03-19 13:30:00,75.7,47.6,30.06,South,177,3.5,3.5,37,0.00,CLR,,0.00,WeatherDisplay:10.37,2013-03-19 20:30:00,
2013-03-19 13:35:00,75.7,47.6,30.06,NNW,339,2.3,2.3,37,0.00,CLR,,0.00,WeatherDisplay:10.37,2013-03-19 20:35:00,
2013-03-19 13:40:00,75.6,46.8,30.05,NW,311,2.3,2.3,36,0.00,CLR,,0.00,WeatherDisplay:10.37,2013-03-19 20:40:00,
2013-03-19 13:45:00,75.9,45.5,30.05,NW,316,1.2,1.2,34,0.00,CLR,,0.00,WeatherDisplay:10.37,2013-03-19 20:45:00,
2013-03-19 13:50:00,76.6,45.3,30.05,WNW,289,3.5,3.5,33,0.00,CLR,,0.00,WeatherDisplay:10.37,2013-03-19 20:50:00,
2013-03-19 13:55:00,76.7,43.8,30.05,NNW,333,2.0,2.0,31,0.00,CLR,,0.00,WeatherDisplay:10.37,2013-03-19 20:55:00,
2013-03-19 14:00:00,76.8,43.9,30.05,SSE,154,1.2,1.2,31,0.00,CLR,,0.00,WeatherDisplay:10.37,2013-03-19 21:00:00,
2013-03-19 14:05:00,77.2,45.9,30.05,SW,218,1.2,0.0,33,0.00,CLR,,0.00,WeatherDisplay:10.37,2013-03-19 21:05:00,
2013-03-19 14:10:00,77.4,44.4,30.04,SW,224,1.2,1.2,31,0.00,CLR,,0.00,WeatherDisplay:10.37,2013-03-19 21:10:00,
2013-03-19 14:15:00,77.5,43.6,30.04,SW,226,2.3,2.3,30,0.00,CLR,,0.00,WeatherDisplay:10.37,2013-03-19 21:15:00,
2013-03-19 14:20:00,77.3,39.7,30.03,NNE,19,2.3,2.3,26,0.00,CLR,,0.00,WeatherDisplay:10.37,2013-03-19 21:20:00,
2013-03-19 14:25:00,77.7,42.0,30.03,NNE,16,3.5,3.5,28,0.00,CLR,,0.00,WeatherDisplay:10.37,2013-03-19 21:25:00,
2013-03-19 14:30:00,78.0,42.2,30.03,North,7,1.2,1.2,28,0.00,CLR,,0.00,WeatherDisplay:10.37,2013-03-19 21:30:00,
2013-03-19 14:35:00,78.7,42.8,30.03,NNE,30,1.2,0.0,28,0.00,CLR,,0.00,WeatherDisplay:10.37,2013-03-19 21:35:00,
2013-03-19 14:40:00,79.2,42.3,30.03,West,262,1.2,1.2,27,0.00,CLR,,0.00,WeatherDisplay:10.37,2013-03-19 21:40:00,
2013-03-19 14:45:00,79.3,43.4,30.03,ESE,117,1.2,1.2,28,0.00,CLR,,0.00,WeatherDisplay:10.37,2013-03-19 21:45:00,
2013-03-19 14:50:00,79.7,43.7,30.03,West,278,2.3,2.3,28,0.00,CLR,,0.00,WeatherDisplay:10.37,2013-03-19 21:50:00,
2013-03-19 14:55:00,80.1,42.1,30.02,SSW,198,2.3,2.3,26,0.00,CLR,,0.00,WeatherDisplay:10.37,2013-03-19 21:55:00,
2013-03-19 15:00:00,79.6,41.7,30.02,North,11,4.6,4.6,26,0.00,CLR,,0.00,WeatherDisplay:10.37,2013-03-19 22:00:00,
2013-03-19 15:05:00,78.7,41.9,30.02,South,181,3.5,0.0,27,0.00,CLR,,0.00,WeatherDisplay:10.37,2013-03-19 22:05:00,
2013-03-19 15:10:00,78.9,41.1,30.01,West,269,2.3,2.3,26,0.00,CLR,,0.00,WeatherDisplay:10.37,2013-03-19 22:10:00,
2013-03-19 15:15:00,78.9,41.1,30.01,West,275,3.5,3.5,26,0.00,CLR,,0.00,WeatherDisplay:10.37,2013-03-19 22:15:00,
2013-03-19 15:20:00,79.0,42.2,30.01,WSW,238,1.2,0.0,27,0.00,CLR,,0.00,WeatherDisplay:10.37,2013-03-19 22:20:00,
2013-03-19 15:25:00,79.5,42.6,30.01,SSW,210,1.2,1.2,27,0.00,CLR,,0.00,WeatherDisplay:10.37,2013-03-19 22:25:00,
2013-03-19 15:30:00,79.8,41.9,30.01,NNW,335,1.2,1.2,26,0.00,CLR,,0.00,WeatherDisplay:10.37,2013-03-19 22:30:00,
2013-03-19 15:35:00,79.8,41.9,30.01,SE,145,3.5,3.5,26,0.00,CLR,,0.00,WeatherDisplay:10.37,2013-03-19 22:35:00,
2013-03-19 15:40:00,79.5,42.6,30.01,North,350,2.3,2.3,27,0.00,CLR,,0.00,WeatherDisplay:10.37,2013-03-19 22:40:00,
2013-03-19 15:45:00,79.3,42.4,30.01,North,9,4.6,4.6,27,0.00,CLR,,0.00,WeatherDisplay:10.37,2013-03-19 22:45:00,
2013-03-19 15:50:00,78.7,42.8,30.01,SE,143,2.3,2.3,28,0.00,CLR,,0.00,WeatherDisplay:10.37,2013-03-19 22:50:00,
2013-03-19 15:55:00,78.7,42.8,30.01,SW,235,2.3,2.3,28,0.00,CLR,,0.00,WeatherDisplay:10.37,2013-03-19 22:55:00,
2013-03-19 16:00:00,79.2,42.3,30.01,NW,305,3.5,3.5,27,0.00,CLR,,0.00,WeatherDisplay:10.37,2013-03-19 23:00:00,
2013-03-19 16:05:00,79.0,42.2,30.01,WSW,257,2.3,2.3,27,0.00,CLR,,0.00,WeatherDisplay:10.37,2013-03-19 23:05:00,
2013-03-19 16:10:00,79.1,42.2,30.01,ESE,122,1.2,1.2,27,0.00,CLR,,0.00,WeatherDisplay:10.37,2013-03-19 23:10:00,
2013-03-19 16:15:00,78.8,41.0,30.01,NNW,336,1.2,1.2,26,0.00,CLR,,0.00,WeatherDisplay:10.37,2013-03-19 23:15:00,
2013-03-19 16:20:00,79.0,43.1,30.01,NW,307,2.3,2.3,28,0.00,CLR,,0.00,WeatherDisplay:10.37,2013-03-19 23:20:00,
2013-03-19 16:25:00,79.0,43.1,30.01,WNW,299,3.5,3.5,28,0.00,CLR,,0.00,WeatherDisplay:10.37,2013-03-19 23:25:00,
2013-03-19 16:30:00,78.8,43.8,30.01,WNW,297,3.5,3.5,29,0.00,CLR,,0.00,WeatherDisplay:10.37,2013-03-19 23:30:00,
2013-03-19 16:35:00,78.4,44.4,30.01,North,8,3.5,3.5,30,0.00,CLR,,0.00,WeatherDisplay:10.37,2013-03-19 23:35:00,
2013-03-19 16:40:00,78.2,42.4,30.01,NW,316,3.5,3.5,28,0.00,CLR,,0.00,WeatherDisplay:10.37,2013-03-19 23:40:00,
2013-03-19 16:45:00,78.3,42.5,30.01,NW,323,3.5,3.5,28,0.00,CLR,,0.00,WeatherDisplay:10.37,2013-03-19 23:45:00,
2013-03-19 16:50:00,78.1,44.1,30.01,West,281,6.9,6.9,30,0.00,CLR,,0.00,WeatherDisplay:10.37,2013-03-19 23:50:00,
2013-03-19 16:55:00,77.7,42.9,30.01,NW,305,3.5,3.5,29,0.00,CLR,,0.00,WeatherDisplay:10.37,2013-03-19 23:55:00,
2013-03-19 17:00:00,77.6,44.6,30.01,North,356,2.3,2.3,31,0.00,CLR,,0.00,WeatherDisplay:10.37,2013-03-20 00:00:00,
2013-03-19 17:05:00,77.8,43.9,30.01,NE,46,2.3,2.3,30,0.00,CLR,,0.00,WeatherDisplay:10.37,2013-03-20 00:05:00,
2013-03-19 17:10:00,78.2,44.2,30.01,NNE,16,2.3,2.3,30,0.00,CLR,,0.00,WeatherDisplay:10.37,2013-03-20 00:10:00,
2013-03-19 17:15:00,78.1,45.0,30.01,WNW,285,3.5,3.5,31,0.00,CLR,,0.00,WeatherDisplay:10.37,2013-03-20 00:15:00,
2013-03-19 17:20:00,78.1,45.0,30.01,West,278,1.2,1.2,31,0.00,CLR,,0.00,WeatherDisplay:10.37,2013-03-20 00:20:00,
2013-03-19 17:25:00,77.9,44.8,30.01,SSW,207,2.3,2.3,31,0.00,CLR,,0.00,WeatherDisplay:10.37,2013-03-20 00:25:00,
2013-03-19 17:30:00,77.4,45.2,30.00,North,349,3.5,3.5,32,0.00,CLR,,0.00,WeatherDisplay:10.37,2013-03-20 00:30:00,
2013-03-19 17:35:00,76.5,45.2,30.00,West,274,3.5,3.5,33,0.00,CLR,,0.00,WeatherDisplay:10.37,2013-03-20 00:35:00,
2013-03-19 17:40:00,76.0,45.6,30.01,WNW,291,3.5,3.5,34,0.00,CLR,,0.00,WeatherDisplay:10.37,2013-03-20 00:40:00,
2013-03-19 17:45:00,76.0,44.8,30.00,WSW,249,1.2,1.2,33,0.00,CLR,,0.00,WeatherDisplay:10.37,2013-03-20 00:45:00,
2013-03-19 17:50:00,75.6,45.2,30.00,WNW,283,1.2,1.2,34,0.00,CLR,,0.00,WeatherDisplay:10.37,2013-03-20 00:50:00,
2013-03-19 17:55:00,75.0,45.5,30.00,North,1,1.2,0.0,35,0.00,CLR,,0.00,WeatherDisplay:10.37,2013-03-20 00:55:00,
2013-03-19 18:00:00,74.9,46.1,30.00,NNW,345,1.2,1.2,36,0.00,CLR,,0.00,WeatherDisplay:10.37,2013-03-20 01:00:00,
2013-03-19 18:05:00,74.7,46.0,30.00,NNW,336,1.2,1.2,36,0.00,CLR,,0.00,WeatherDisplay:10.37,2013-03-20 01:05:00,
2013-03-19 18:10:00,74.4,46.4,30.01,North,4,1.2,1.2,37,0.00,CLR,,0.00,WeatherDisplay:10.37,2013-03-20 01:10:00,
2013-03-19 18:15:00,74.1,46.2,30.01,WNW,283,1.2,1.2,37,0.00,CLR,,0.00,WeatherDisplay:10.37,2013-03-20 01:15:00,
2013-03-19 18:20:00,73.7,46.5,30.01,West,269,1.2,1.2,38,0.00,CLR,,0.00,WeatherDisplay:10.37,2013-03-20 01:20:00,
2013-03-19 18:25:00,73.4,46.9,30.01,SW,215,0.0,0.2,39,0.00,CLR,,0.00,WeatherDisplay:10.37,2013-03-20 01:25:00,
2013-03-19 18:30:00,73.1,46.7,30.01,SW,218,1.2,0.0,39,0.00,CLR,,0.00,WeatherDisplay:10.37,2013-03-20 01:30:00,
2013-03-19 18:35:00,72.7,46.3,30.01,NW,325,1.2,0.0,39,0.00,CLR,,0.00,WeatherDisplay:10.37,2013-03-20 01:35:00,
2013-03-19 18:40:00,72.3,46.6,30.01,NNW,328,1.2,1.2,40,0.00,CLR,,0.00,WeatherDisplay:10.37,2013-03-20 01:40:00,
2013-03-19 18:45:00,72.0,47.6,30.01,North,357,0.0,0.0,42,0.00,CLR,,0.00,WeatherDisplay:10.37,2013-03-20 01:45:00,
2013-03-19 18:50:00,71.6,46.6,30.01,North,357,0.0,0.0,41,0.00,CLR,,0.00,WeatherDisplay:10.37,2013-03-20 01:50:00,
2013-03-19 18:55:00,71.3,46.4,30.01,North,357,0.0,0.0,41,0.00,CLR,,0.00,WeatherDisplay:10.37,2013-03-20 01:55:00,
2013-03-19 19:00:00,71.0,47.4,30.01,North,356,0.0,0.0,43,0.00,CLR,,0.00,WeatherDisplay:10.37,2013-03-20 02:00:00,
2013-03-19 19:05:00,70.4,46.8,30.01,North,356,0.0,0.0,43,0.00,CLR,,0.00,WeatherDisplay:10.37,2013-03-20 02:05:00,
2013-03-19 19:10:00,69.9,46.4,30.01,North,356,0.0,0.0,43,0.00,CLR,,0.00,WeatherDisplay:10.37,2013-03-20 02:10:00,
2013-03-19 19:15:00,69.4,46.5,30.01,North,356,0.0,0.0,44,0.00,CLR,,0.00,WeatherDisplay:10.37,2013-03-20 02:15:00,
2013-03-19 19:20:00,68.9,46.7,30.01,North,356,0.0,0.0,45,0.00,CLR,,0.00,WeatherDisplay:10.37,2013-03-20 02:20:00,
2013-03-19 19:25:00,68.5,46.9,30.01,North,356,0.0,0.0,46,0.00,CLR,,0.00,WeatherDisplay:10.37,2013-03-20 02:25:00,
2013-03-19 19:30:00,68.1,48.2,30.02,North,356,0.0,0.0,49,0.00,CLR,,0.00,WeatherDisplay:10.37,2013-03-20 02:30:00,
2013-03-19 19:35:00,67.9,47.5,30.01,North,356,0.0,0.0,48,0.00,CLR,,0.00,WeatherDisplay:10.37,2013-03-20 02:35:00,
2013-03-19 19:40:00,67.9,46.9,30.01,North,356,1.2,1.2,47,0.00,CLR,,0.00,WeatherDisplay:10.37,2013-03-20 02:40:00,
2013-03-19 19:45:00,68.0,47.0,30.01,North,356,1.2,0.0,47,0.00,CLR,,0.00,WeatherDisplay:10.37,2013-03-20 02:45:00,
2013-03-19 19:50:00,68.1,46.5,30.01,North,356,1.2,0.0,46,0.00,CLR,,0.00,WeatherDisplay:10.37,2013-03-20 02:50:00,
2013-03-19 19:55:00,67.9,46.9,30.01,North,356,0.0,0.0,47,0.00,CLR,,0.00,WeatherDisplay:10.37,2013-03-20 02:55:00,
2013-03-19 20:00:00,67.5,46.6,30.01,North,356,0.0,0.0,47,0.00,CLR,,0.00,WeatherDisplay:10.37,2013-03-20 03:00:00,
2013-03-19 20:05:00,66.8,46.5,30.02,North,356,0.0,0.0,48,0.00,CLR,,0.00,WeatherDisplay:10.37,2013-03-20 03:05:00,
2013-03-19 20:10:00,66.3,46.0,30.02,North,356,0.0,0.0,48,0.00,CLR,,0.00,WeatherDisplay:10.37,2013-03-20 03:10:00,
2013-03-19 20:15:00,65.9,46.2,30.02,North,356,0.0,0.0,49,0.00,CLR,,0.00,WeatherDisplay:10.37,2013-03-20 03:15:00,
2013-03-19 20:20:00,65.5,46.9,30.02,North,356,0.0,0.0,51,0.00,CLR,,0.00,WeatherDisplay:10.37,2013-03-20 03:20:00,
2013-03-19 20:25:00,65.0,47.4,30.02,North,356,0.0,0.0,53,0.00,CLR,,0.00,WeatherDisplay:10.37,2013-03-20 03:25:00,
2013-03-19 20:30:00,64.5,47.0,30.02,North,356,0.0,0.0,53,0.00,CLR,,0.00,WeatherDisplay:10.37,2013-03-20 03:30:00,
2013-03-19 20:35:00,64.1,47.6,30.02,North,357,0.0,0.0,55,0.00,CLR,,0.00,WeatherDisplay:10.37,2013-03-20 03:35:00,
2013-03-19 20:40:00,63.8,47.8,30.02,North,356,0.0,0.0,56,0.00,CLR,,0.00,WeatherDisplay:10.37,2013-03-20 03:40:00,
2013-03-19 20:45:00,63.6,47.6,30.03,North,356,0.0,0.0,56,0.00,CLR,,0.00,WeatherDisplay:10.37,2013-03-20 03:45:00,
2013-03-19 20:50:00,63.3,46.4,30.03,North,356,0.0,0.0,54,0.00,CLR,,0.00,WeatherDisplay:10.37,2013-03-20 03:50:00,
2013-03-19 20:55:00,63.1,46.7,30.03,North,356,0.0,0.0,55,0.00,CLR,,0.00,WeatherDisplay:10.37,2013-03-20 03:55:00,
2013-03-19 21:00:00,63.0,47.1,30.03,North,357,0.0,0.0,56,0.00,CLR,,0.00,WeatherDisplay:10.37,2013-03-20 04:00:00,
2013-03-19 21:05:00,63.1,48.1,30.04,North,357,0.0,0.0,58,0.00,CLR,,0.00,WeatherDisplay:10.37,2013-03-20 04:05:00,
2013-03-19 21:10:00,63.2,48.2,30.04,North,356,0.0,0.0,58,0.00,CLR,,0.00,WeatherDisplay:10.37,2013-03-20 04:10:00,
2013-03-19 21:15:00,63.0,47.5,30.04,North,356,0.0,0.0,57,0.00,CLR,,0.00,WeatherDisplay:10.37,2013-03-20 04:15:00,
2013-03-19 21:20:00,62.8,47.8,30.05,North,356,0.0,0.0,58,0.00,CLR,,0.00,WeatherDisplay:10.37,2013-03-20 04:20:00,
2013-03-19 21:25:00,62.9,47.9,30.05,North,356,0.0,0.0,58,0.00,CLR,,0.00,WeatherDisplay:10.37,2013-03-20 04:25:00,
2013-03-19 21:30:00,62.9,47.9,30.05,North,356,0.0,0.0,58,0.00,CLR,,0.00,WeatherDisplay:10.37,2013-03-20 04:30:00,
2013-03-19 21:35:00,62.9,48.3,30.06,North,356,0.0,0.0,59,0.00,CLR,,0.00,WeatherDisplay:10.37,2013-03-20 04:35:00,
2013-03-19 21:40:00,62.9,49.2,30.06,North,356,0.0,0.0,61,0.00,CLR,,0.00,WeatherDisplay:10.37,2013-03-20 04:40:00,
2013-03-19 21:45:00,62.8,49.1,30.07,North,356,0.0,0.0,61,0.00,CLR,,0.00,WeatherDisplay:10.37,2013-03-20 04:45:00,
2013-03-19 21:50:00,62.6,49.4,30.07,North,356,0.0,0.0,62,0.00,CLR,,0.00,WeatherDisplay:10.37,2013-03-20 04:50:00,
2013-03-19 21:56:00,62.5,49.7,30.08,North,356,0.0,0.0,63,0.00,CLR,,0.00,WeatherDisplay:10.37,2013-03-20 04:56:00,
2013-03-19 22:01:00,62.4,49.6,30.08,WSW,238,0.0,0.0,63,0.00,CLR,,0.00,WeatherDisplay:10.37,2013-03-20 05:01:00,
2013-03-19 22:06:00,62.5,50.2,30.08,West,273,0.0,0.0,64,0.00,CLR,,0.00,WeatherDisplay:10.37,2013-03-20 05:06:00,
2013-03-19 22:11:00,62.7,49.5,30.09,NNW,330,1.2,1.2,62,0.00,CLR,,0.00,WeatherDisplay:10.37,2013-03-20 05:11:00,
2013-03-19 22:16:00,63.2,48.6,30.10,West,270,4.6,4.6,59,0.00,CLR,,0.00,WeatherDisplay:10.37,2013-03-20 05:16:00,
2013-03-19 22:21:00,64.1,48.1,30.10,West,273,3.5,3.5,56,0.00,CLR,,0.00,WeatherDisplay:10.37,2013-03-20 05:21:00,
2013-03-19 22:26:00,64.5,48.0,30.10,WNW,290,3.5,3.5,55,0.00,CLR,,0.00,WeatherDisplay:10.37,2013-03-20 05:26:00,
2013-03-19 22:31:00,64.6,47.6,30.10,NNW,345,2.3,2.3,54,0.00,CLR,,0.00,WeatherDisplay:10.37,2013-03-20 05:31:00,
2013-03-19 22:36:00,64.7,46.7,30.11,ENE,65,3.5,3.5,52,0.00,CLR,,0.00,WeatherDisplay:10.37,2013-03-20 05:36:00,
2013-03-19 22:41:00,64.6,46.1,30.11,WSW,238,6.9,6.9,51,0.00,CLR,,0.00,WeatherDisplay:10.37,2013-03-20 05:41:00,
2013-03-19 22:46:00,64.5,46.0,30.11,NW,312,6.9,6.9,51,0.00,FEW,,0.00,WeatherDisplay:10.37,2013-03-20 05:46:00,
2013-03-19 22:51:00,64.3,45.8,30.11,NNW,333,6.9,6.9,51,0.00,FEW,,0.00,WeatherDisplay:10.37,2013-03-20 05:51:00,
2013-03-19 22:56:00,64.2,46.2,30.12,North,353,3.5,3.5,52,0.00,FEW,,0.00,WeatherDisplay:10.37,2013-03-20 05:56:00,
2013-03-19 23:01:00,64.0,46.0,30.12,NW,319,3.5,3.5,52,0.00,CLR,,0.00,WeatherDisplay:10.37,2013-03-20 06:01:00,
2013-03-19 23:06:00,64.0,46.0,30.12,NW,315,4.6,4.6,52,0.00,CLR,,0.00,WeatherDisplay:10.37,2013-03-20 06:06:00,
2013-03-19 23:11:00,63.9,46.4,30.12,NW,311,3.5,3.5,53,0.00,CLR,,0.00,WeatherDisplay:10.37,2013-03-20 06:11:00,
2013-03-19 23:16:00,63.8,46.8,30.12,NNW,343,3.0,3.0,54,0.00,CLR,,0.00,WeatherDisplay:10.37,2013-03-20 06:16:00,
2013-03-19 23:21:00,63.8,46.8,30.12,North,358,2.3,2.3,54,0.00,CLR,,0.00,WeatherDisplay:10.37,2013-03-20 06:21:00,
2013-03-19 23:26:00,63.9,47.4,30.12,NNW,343,3.5,3.5,55,0.00,CLR,,0.00,WeatherDisplay:10.37,2013-03-20 06:26:00,
2013-03-19 23:31:00,63.9,47.4,30.11,NW,316,5.8,5.8,55,0.00,BKN,,0.00,WeatherDisplay:10.37,2013-03-20 06:31:00,
2013-03-19 23:36:00,63.7,47.7,30.10,NNE,18,3.5,3.5,56,0.00,BKN,,0.00,WeatherDisplay:10.37,2013-03-20 06:36:00,
2013-03-19 23:41:00,63.6,48.1,30.10,NW,309,3.5,3.5,57,0.00,BKN,,0.00,WeatherDisplay:10.37,2013-03-20 06:41:00,
2013-03-19 23:46:00,63.5,48.0,30.10,North,351,8.1,8.1,57,0.00,OVC,,0.00,WeatherDisplay:10.37,2013-03-20 06:46:00,
2013-03-19 23:51:00,63.6,47.6,30.09,East,94,4.6,4.6,56,0.00,OVC,,0.00,WeatherDisplay:10.37,2013-03-20 06:51:00,
2013-03-19 23:56:00,63.7,48.2,30.10,NNE,33,8.1,8.1,57,0.00,OVC,,0.00,WeatherDisplay:10.37,2013-03-20 06:56:00,